sensor_id;sensor_type;location;lat;lon;timestamp;temperature;humidity
58309;DHT22;44117;57.142;24.826;2022-08-11T00:01:51;13.00;99.90
58309;DHT22;44117;57.142;24.826;2022-08-11T00:04:20;13.00;99.90
58309;DHT22;44117;57.142;24.826;2022-08-11T00:06:49;13.00;99.90
58309;DHT22;44117;57.142;24.826;2022-08-11T00:09:20;13.00;99.90
58309;DHT22;44117;57.142;24.826;2022-08-11T00:11:48;13.00;99.90
58309;DHT22;44117;57.142;24.826;2022-08-11T00:14:20;13.00;99.90
58309;DHT22;44117;57.142;24.826;2022-08-11T00:16:58;13.00;99.90
58309;DHT22;44117;57.142;24.826;2022-08-11T00:19:27;13.00;99.90
58309;DHT22;44117;57.142;24.826;2022-08-11T00:22:20;12.90;99.90
58309;DHT22;44117;57.142;24.826;2022-08-11T00:24:48;12.90;99.90
58309;DHT22;44117;57.142;24.826;2022-08-11T00:27:32;12.90;99.90
58309;DHT22;44117;57.142;24.826;2022-08-11T00:30:00;12.80;99.90
58309;DHT22;44117;57.142;24.826;2022-08-11T00:32:27;12.80;99.90
58309;DHT22;44117;57.142;24.826;2022-08-11T00:34:56;12.70;99.90
58309;DHT22;44117;57.142;24.826;2022-08-11T00:37:44;12.70;99.90
58309;DHT22;44117;57.142;24.826;2022-08-11T00:40:22;12.60;99.90
58309;DHT22;44117;57.142;24.826;2022-08-11T00:48:24;12.50;99.90
58309;DHT22;44117;57.142;24.826;2022-08-11T00:53:38;12.50;99.90
58309;DHT22;44117;57.142;24.826;2022-08-11T00:56:15;12.60;99.90
58309;DHT22;44117;57.142;24.826;2022-08-11T00:59:39;12.50;99.90
58309;DHT22;44117;57.142;24.826;2022-08-11T01:02:07;12.50;99.90
58309;DHT22;44117;57.142;24.826;2022-08-11T01:39:31;12.00;99.90
58309;DHT22;44117;57.142;24.826;2022-08-11T01:48:02;11.80;99.90
58309;DHT22;44117;57.142;24.826;2022-08-11T01:53:23;11.80;99.90
58309;DHT22;44117;57.142;24.826;2022-08-11T02:01:27;11.50;99.90
58309;DHT22;44117;57.142;24.826;2022-08-11T02:04:17;11.50;99.90
58309;DHT22;44117;57.142;24.826;2022-08-11T02:06:52;11.50;99.90
58309;DHT22;44117;57.142;24.826;2022-08-11T02:09:37;11.50;99.90
58309;DHT22;44117;57.142;24.826;2022-08-11T02:15:10;11.60;99.90
58309;DHT22;44117;57.142;24.826;2022-08-11T02:20:25;11.60;99.90
58309;DHT22;44117;57.142;24.826;2022-08-11T02:31:26;11.40;99.90
58309;DHT22;44117;57.142;24.826;2022-08-11T02:34:46;11.40;99.90
58309;DHT22;44117;57.142;24.826;2022-08-11T02:40:05;11.50;99.90
58309;DHT22;44117;57.142;24.826;2022-08-11T02:42:47;11.50;99.90
58309;DHT22;44117;57.142;24.826;2022-08-11T02:48:13;11.50;99.90
58309;DHT22;44117;57.142;24.826;2022-08-11T02:56:42;11.70;99.90
58309;DHT22;44117;57.142;24.826;2022-08-11T02:59:18;11.80;99.90
58309;DHT22;44117;57.142;24.826;2022-08-11T03:04:58;11.90;99.90
58309;DHT22;44117;57.142;24.826;2022-08-11T03:07:30;12.00;99.90
58309;DHT22;44117;57.142;24.826;2022-08-11T03:10:00;12.00;99.90
58309;DHT22;44117;57.142;24.826;2022-08-11T03:12:35;12.00;99.90
58309;DHT22;44117;57.142;24.826;2022-08-11T03:15:30;12.10;99.90
58309;DHT22;44117;57.142;24.826;2022-08-11T03:23:45;12.30;99.90
58309;DHT22;44117;57.142;24.826;2022-08-11T03:26:21;12.30;99.90
58309;DHT22;44117;57.142;24.826;2022-08-11T03:44:33;12.80;99.90
58309;DHT22;44117;57.142;24.826;2022-08-11T04:08:34;13.50;99.90
58309;DHT22;44117;57.142;24.826;2022-08-11T04:11:16;13.60;99.90
58309;DHT22;44117;57.142;24.826;2022-08-11T04:14:11;13.60;99.90
58309;DHT22;44117;57.142;24.826;2022-08-11T04:31:01;14.30;99.90
58309;DHT22;44117;57.142;24.826;2022-08-11T04:41:12;14.90;99.90
58309;DHT22;44117;57.142;24.826;2022-08-11T04:49:29;15.20;99.90
58309;DHT22;44117;57.142;24.826;2022-08-11T04:58:11;15.60;99.90
58309;DHT22;44117;57.142;24.826;2022-08-11T05:13:51;16.30;99.90
58309;DHT22;44117;57.142;24.826;2022-08-11T05:16:50;16.40;99.90
58309;DHT22;44117;57.142;24.826;2022-08-11T05:19:36;16.50;99.90
58309;DHT22;44117;57.142;24.826;2022-08-11T05:22:24;16.50;99.90
58309;DHT22;44117;57.142;24.826;2022-08-11T05:25:19;16.70;99.90
58309;DHT22;44117;57.142;24.826;2022-08-11T05:28:33;16.80;99.90
58309;DHT22;44117;57.142;24.826;2022-08-11T05:31:21;16.90;99.90
58309;DHT22;44117;57.142;24.826;2022-08-11T05:34:30;17.00;99.90
58309;DHT22;44117;57.142;24.826;2022-08-11T05:37:22;17.20;99.90
58309;DHT22;44117;57.142;24.826;2022-08-11T05:39:59;17.30;99.90
58309;DHT22;44117;57.142;24.826;2022-08-11T05:42:48;17.50;99.90
58309;DHT22;44117;57.142;24.826;2022-08-11T05:45:34;17.60;99.90
58309;DHT22;44117;57.142;24.826;2022-08-11T05:48:31;17.70;99.90
58309;DHT22;44117;57.142;24.826;2022-08-11T05:51:17;17.80;99.90
58309;DHT22;44117;57.142;24.826;2022-08-11T05:54:03;17.90;99.90
58309;DHT22;44117;57.142;24.826;2022-08-11T05:56:55;18.00;99.60
58309;DHT22;44117;57.142;24.826;2022-08-11T05:59:23;18.10;99.20
58309;DHT22;44117;57.142;24.826;2022-08-11T06:01:52;18.20;99.70
58309;DHT22;44117;57.142;24.826;2022-08-11T06:04:26;18.40;98.50
58309;DHT22;44117;57.142;24.826;2022-08-11T06:07:04;18.50;97.80
58309;DHT22;44117;57.142;24.826;2022-08-11T06:09:37;18.60;97.00
58309;DHT22;44117;57.142;24.826;2022-08-11T06:12:06;18.70;96.90
58309;DHT22;44117;57.142;24.826;2022-08-11T06:14:40;18.80;96.50
58309;DHT22;44117;57.142;24.826;2022-08-11T06:17:08;18.80;95.90
58309;DHT22;44117;57.142;24.826;2022-08-11T06:19:39;18.90;95.60
58309;DHT22;44117;57.142;24.826;2022-08-11T06:22:08;18.90;96.20
58309;DHT22;44117;57.142;24.826;2022-08-11T06:24:37;19.00;95.40
58309;DHT22;44117;57.142;24.826;2022-08-11T06:27:05;19.10;95.40
58309;DHT22;44117;57.142;24.826;2022-08-11T06:29:45;19.10;96.70
58309;DHT22;44117;57.142;24.826;2022-08-11T06:32:22;19.20;96.70
58309;DHT22;44117;57.142;24.826;2022-08-11T06:42:46;19.60;95.80
58309;DHT22;44117;57.142;24.826;2022-08-11T06:47:50;19.70;95.40
58309;DHT22;44117;57.142;24.826;2022-08-11T06:50:18;19.80;95.70
58309;DHT22;44117;57.142;24.826;2022-08-11T06:53:04;19.90;95.10
58309;DHT22;44117;57.142;24.826;2022-08-11T06:55:33;19.90;94.30
58309;DHT22;44117;57.142;24.826;2022-08-11T06:58:29;19.90;94.00
58309;DHT22;44117;57.142;24.826;2022-08-11T07:01:38;20.00;95.00
58309;DHT22;44117;57.142;24.826;2022-08-11T07:04:04;20.10;94.00
58309;DHT22;44117;57.142;24.826;2022-08-11T07:12:38;20.20;93.40
58309;DHT22;44117;57.142;24.826;2022-08-11T07:15:27;20.30;93.40
58309;DHT22;44117;57.142;24.826;2022-08-11T07:18:34;20.40;91.50
58309;DHT22;44117;57.142;24.826;2022-08-11T07:21:23;20.40;92.70
58309;DHT22;44117;57.142;24.826;2022-08-11T07:24:34;20.60;93.50
58309;DHT22;44117;57.142;24.826;2022-08-11T07:27:51;20.60;92.10
58309;DHT22;44117;57.142;24.826;2022-08-11T07:30:36;20.80;92.60
58309;DHT22;44117;57.142;24.826;2022-08-11T07:33:05;20.80;91.90
58309;DHT22;44117;57.142;24.826;2022-08-11T07:35:34;20.90;92.90
58309;DHT22;44117;57.142;24.826;2022-08-11T07:38:06;21.00;91.60
58309;DHT22;44117;57.142;24.826;2022-08-11T07:40:35;21.20;90.90
58309;DHT22;44117;57.142;24.826;2022-08-11T07:43:03;21.30;91.30
58309;DHT22;44117;57.142;24.826;2022-08-11T07:45:30;21.30;90.80
58309;DHT22;44117;57.142;24.826;2022-08-11T07:48:16;21.40;90.00
58309;DHT22;44117;57.142;24.826;2022-08-11T07:51:02;21.40;90.00
58309;DHT22;44117;57.142;24.826;2022-08-11T07:53:49;21.40;91.20
58309;DHT22;44117;57.142;24.826;2022-08-11T07:56:31;21.70;91.10
58309;DHT22;44117;57.142;24.826;2022-08-11T07:59:18;21.90;90.70
58309;DHT22;44117;57.142;24.826;2022-08-11T08:02:24;21.80;90.30
58309;DHT22;44117;57.142;24.826;2022-08-11T08:05:10;21.90;89.10
58309;DHT22;44117;57.142;24.826;2022-08-11T08:07:56;21.90;88.00
58309;DHT22;44117;57.142;24.826;2022-08-11T08:10:44;22.00;89.20
58309;DHT22;44117;57.142;24.826;2022-08-11T08:13:30;22.10;90.20
58309;DHT22;44117;57.142;24.826;2022-08-11T08:16:17;22.30;86.90
58309;DHT22;44117;57.142;24.826;2022-08-11T08:19:03;22.30;87.30
58309;DHT22;44117;57.142;24.826;2022-08-11T08:21:31;22.20;87.70
58309;DHT22;44117;57.142;24.826;2022-08-11T08:23:58;22.30;86.80
58309;DHT22;44117;57.142;24.826;2022-08-11T08:26:26;22.40;88.10
58309;DHT22;44117;57.142;24.826;2022-08-11T08:29:17;22.60;86.20
58309;DHT22;44117;57.142;24.826;2022-08-11T08:32:04;22.40;86.40
58309;DHT22;44117;57.142;24.826;2022-08-11T08:34:36;22.40;86.20
58309;DHT22;44117;57.142;24.826;2022-08-11T08:37:04;22.50;87.40
58309;DHT22;44117;57.142;24.826;2022-08-11T08:39:52;22.70;88.20
58309;DHT22;44117;57.142;24.826;2022-08-11T08:42:23;22.60;86.40
58309;DHT22;44117;57.142;24.826;2022-08-11T08:45:01;22.60;85.80
58309;DHT22;44117;57.142;24.826;2022-08-11T08:47:30;22.90;85.90
58309;DHT22;44117;57.142;24.826;2022-08-11T08:50:12;23.20;86.20
58309;DHT22;44117;57.142;24.826;2022-08-11T08:52:44;23.10;84.70
58309;DHT22;44117;57.142;24.826;2022-08-11T08:55:17;23.10;84.10
58309;DHT22;44117;57.142;24.826;2022-08-11T08:57:44;23.10;84.10
58309;DHT22;44117;57.142;24.826;2022-08-11T09:00:13;23.30;83.30
58309;DHT22;44117;57.142;24.826;2022-08-11T09:02:46;23.50;83.80
58309;DHT22;44117;57.142;24.826;2022-08-11T09:05:15;23.60;83.30
58309;DHT22;44117;57.142;24.826;2022-08-11T09:07:43;23.50;83.80
58309;DHT22;44117;57.142;24.826;2022-08-11T09:10:13;23.40;83.20
58309;DHT22;44117;57.142;24.826;2022-08-11T09:12:43;23.40;83.90
58309;DHT22;44117;57.142;24.826;2022-08-11T09:15:11;23.60;83.00
58309;DHT22;44117;57.142;24.826;2022-08-11T09:17:49;23.60;82.40
58309;DHT22;44117;57.142;24.826;2022-08-11T09:20:18;23.90;81.20
58309;DHT22;44117;57.142;24.826;2022-08-11T09:22:46;24.00;81.70
58309;DHT22;44117;57.142;24.826;2022-08-11T09:25:56;23.80;81.40
58309;DHT22;44117;57.142;24.826;2022-08-11T09:28:44;23.60;79.80
58309;DHT22;44117;57.142;24.826;2022-08-11T09:31:12;24.10;80.00
58309;DHT22;44117;57.142;24.826;2022-08-11T09:33:40;24.00;80.80
58309;DHT22;44117;57.142;24.826;2022-08-11T09:36:08;24.10;78.70
58309;DHT22;44117;57.142;24.826;2022-08-11T09:38:54;24.50;76.80
58309;DHT22;44117;57.142;24.826;2022-08-11T09:41:41;24.70;75.40
58309;DHT22;44117;57.142;24.826;2022-08-11T09:44:29;24.30;75.60
58309;DHT22;44117;57.142;24.826;2022-08-11T09:47:25;24.20;77.40
58309;DHT22;44117;57.142;24.826;2022-08-11T09:49:57;23.90;78.20
58309;DHT22;44117;57.142;24.826;2022-08-11T09:52:37;23.90;77.40
58309;DHT22;44117;57.142;24.826;2022-08-11T09:55:25;24.10;75.60
58309;DHT22;44117;57.142;24.826;2022-08-11T09:57:52;24.10;77.60
58309;DHT22;44117;57.142;24.826;2022-08-11T10:00:58;24.00;76.20
58309;DHT22;44117;57.142;24.826;2022-08-11T10:03:27;24.10;74.00
58309;DHT22;44117;57.142;24.826;2022-08-11T10:06:00;23.90;72.70
58309;DHT22;44117;57.142;24.826;2022-08-11T10:08:58;24.20;74.00
58309;DHT22;44117;57.142;24.826;2022-08-11T10:11:26;24.50;75.70
58309;DHT22;44117;57.142;24.826;2022-08-11T10:13:54;24.90;75.30
58309;DHT22;44117;57.142;24.826;2022-08-11T10:17:01;25.80;72.20
58309;DHT22;44117;57.142;24.826;2022-08-11T10:19:30;26.00;69.90
58309;DHT22;44117;57.142;24.826;2022-08-11T10:21:58;25.40;70.50
58309;DHT22;44117;57.142;24.826;2022-08-11T10:24:44;25.50;70.80
58309;DHT22;44117;57.142;24.826;2022-08-11T10:27:30;25.90;72.40
58309;DHT22;44117;57.142;24.826;2022-08-11T10:30:18;26.70;68.00
58309;DHT22;44117;57.142;24.826;2022-08-11T10:33:07;27.10;69.80
58309;DHT22;44117;57.142;24.826;2022-08-11T10:36:08;27.90;67.10
58309;DHT22;44117;57.142;24.826;2022-08-11T10:38:42;27.00;69.30
58309;DHT22;44117;57.142;24.826;2022-08-11T10:41:12;26.20;68.90
58309;DHT22;44117;57.142;24.826;2022-08-11T10:43:57;26.70;70.60
58309;DHT22;44117;57.142;24.826;2022-08-11T10:46:29;27.00;67.80
58309;DHT22;44117;57.142;24.826;2022-08-11T10:49:15;26.80;69.30
58309;DHT22;44117;57.142;24.826;2022-08-11T10:51:43;26.80;68.70
58309;DHT22;44117;57.142;24.826;2022-08-11T10:54:30;27.30;67.20
58309;DHT22;44117;57.142;24.826;2022-08-11T10:57:16;28.20;66.80
58309;DHT22;44117;57.142;24.826;2022-08-11T11:00:03;27.80;66.30
58309;DHT22;44117;57.142;24.826;2022-08-11T11:02:31;27.10;68.60
58309;DHT22;44117;57.142;24.826;2022-08-11T11:05:32;27.10;67.40
58309;DHT22;44117;57.142;24.826;2022-08-11T11:10:20;28.00;65.70
58309;DHT22;44117;57.142;24.826;2022-08-11T11:12:50;27.80;65.50
58309;DHT22;44117;57.142;24.826;2022-08-11T11:15:38;28.30;65.40
58309;DHT22;44117;57.142;24.826;2022-08-11T11:18:26;28.50;67.90
58309;DHT22;44117;57.142;24.826;2022-08-11T11:21:04;28.60;65.00
58309;DHT22;44117;57.142;24.826;2022-08-11T11:26:16;28.30;64.80
58309;DHT22;44117;57.142;24.826;2022-08-11T11:39:11;31.20;60.60
58309;DHT22;44117;57.142;24.826;2022-08-11T11:41:39;30.10;60.90
58309;DHT22;44117;57.142;24.826;2022-08-11T11:44:07;29.40;63.40
58309;DHT22;44117;57.142;24.826;2022-08-11T11:46:37;29.30;64.30
58309;DHT22;44117;57.142;24.826;2022-08-11T11:49:05;29.50;61.40
58309;DHT22;44117;57.142;24.826;2022-08-11T11:51:43;29.40;62.10
58309;DHT22;44117;57.142;24.826;2022-08-11T11:54:13;28.80;61.60
58309;DHT22;44117;57.142;24.826;2022-08-11T11:56:41;28.20;62.50
58309;DHT22;44117;57.142;24.826;2022-08-11T11:59:09;28.60;61.30
58309;DHT22;44117;57.142;24.826;2022-08-11T12:01:55;30.10;62.80
58309;DHT22;44117;57.142;24.826;2022-08-11T12:04:23;31.40;59.90
58309;DHT22;44117;57.142;24.826;2022-08-11T12:06:51;31.20;61.50
58309;DHT22;44117;57.142;24.826;2022-08-11T12:09:41;31.50;58.20
58309;DHT22;44117;57.142;24.826;2022-08-11T12:12:08;30.10;58.20
58309;DHT22;44117;57.142;24.826;2022-08-11T12:14:54;29.70;60.90
58309;DHT22;44117;57.142;24.826;2022-08-11T12:17:21;30.50;61.80
58309;DHT22;44117;57.142;24.826;2022-08-11T12:19:49;31.00;59.90
58309;DHT22;44117;57.142;24.826;2022-08-11T12:22:18;31.30;59.10
58309;DHT22;44117;57.142;24.826;2022-08-11T12:25:04;31.60;59.20
58309;DHT22;44117;57.142;24.826;2022-08-11T12:27:51;30.80;59.90
58309;DHT22;44117;57.142;24.826;2022-08-11T12:30:19;31.10;58.90
58309;DHT22;44117;57.142;24.826;2022-08-11T12:32:46;30.70;57.50
58309;DHT22;44117;57.142;24.826;2022-08-11T12:35:14;32.10;58.10
58309;DHT22;44117;57.142;24.826;2022-08-11T12:37:43;33.70;55.60
58309;DHT22;44117;57.142;24.826;2022-08-11T12:40:12;33.60;54.70
58309;DHT22;44117;57.142;24.826;2022-08-11T12:43:19;32.50;54.70
58309;DHT22;44117;57.142;24.826;2022-08-11T12:46:07;32.00;57.30
58309;DHT22;44117;57.142;24.826;2022-08-11T12:48:35;32.00;57.40
58309;DHT22;44117;57.142;24.826;2022-08-11T12:51:27;32.90;56.30
58309;DHT22;44117;57.142;24.826;2022-08-11T12:57:05;34.70;54.50
58309;DHT22;44117;57.142;24.826;2022-08-11T13:00:04;34.30;54.10
58309;DHT22;44117;57.142;24.826;2022-08-11T13:02:49;33.00;54.20
58309;DHT22;44117;57.142;24.826;2022-08-11T13:05:35;32.20;54.60
58309;DHT22;44117;57.142;24.826;2022-08-11T13:08:11;33.40;55.30
58309;DHT22;44117;57.142;24.826;2022-08-11T13:10:41;35.30;52.30
58309;DHT22;44117;57.142;24.826;2022-08-11T13:13:27;36.20;51.50
58309;DHT22;44117;57.142;24.826;2022-08-11T13:16:14;34.40;51.40
58309;DHT22;44117;57.142;24.826;2022-08-11T13:18:43;32.70;53.30
58309;DHT22;44117;57.142;24.826;2022-08-11T13:21:10;32.60;53.60
58309;DHT22;44117;57.142;24.826;2022-08-11T13:23:47;32.50;54.00
58309;DHT22;44117;57.142;24.826;2022-08-11T13:26:37;33.50;53.60
58309;DHT22;44117;57.142;24.826;2022-08-11T13:29:19;34.40;54.20
58309;DHT22;44117;57.142;24.826;2022-08-11T13:31:46;36.00;51.60
58309;DHT22;44117;57.142;24.826;2022-08-11T13:34:14;35.80;53.00
58309;DHT22;44117;57.142;24.826;2022-08-11T13:36:42;35.70;51.60
58309;DHT22;44117;57.142;24.826;2022-08-11T13:39:09;32.50;52.70
58309;DHT22;44117;57.142;24.826;2022-08-11T13:41:38;31.10;55.80
58309;DHT22;44117;57.142;24.826;2022-08-11T13:44:08;31.30;54.70
58309;DHT22;44117;57.142;24.826;2022-08-11T13:46:36;31.80;55.20
58309;DHT22;44117;57.142;24.826;2022-08-11T13:49:05;31.30;55.60
58309;DHT22;44117;57.142;24.826;2022-08-11T13:51:37;30.40;54.50
58309;DHT22;44117;57.142;24.826;2022-08-11T13:54:06;30.90;55.10
58309;DHT22;44117;57.142;24.826;2022-08-11T13:56:36;32.20;54.70
58309;DHT22;44117;57.142;24.826;2022-08-11T13:59:07;33.60;53.60
58309;DHT22;44117;57.142;24.826;2022-08-11T14:01:40;34.30;51.80
58309;DHT22;44117;57.142;24.826;2022-08-11T14:04:31;35.50;51.40
58309;DHT22;44117;57.142;24.826;2022-08-11T14:07:02;35.50;49.90
58309;DHT22;44117;57.142;24.826;2022-08-11T14:09:31;33.00;51.50
58309;DHT22;44117;57.142;24.826;2022-08-11T14:12:01;32.30;53.00
58309;DHT22;44117;57.142;24.826;2022-08-11T14:14:51;32.90;53.10
58309;DHT22;44117;57.142;24.826;2022-08-11T14:17:20;32.70;52.60
58309;DHT22;44117;57.142;24.826;2022-08-11T14:20:08;32.90;53.30
58309;DHT22;44117;57.142;24.826;2022-08-11T14:22:56;34.10;52.60
58309;DHT22;44117;57.142;24.826;2022-08-11T14:25:23;33.30;52.10
58309;DHT22;44117;57.142;24.826;2022-08-11T14:28:12;34.60;50.30
58309;DHT22;44117;57.142;24.826;2022-08-11T14:31:00;37.10;50.40
58309;DHT22;44117;57.142;24.826;2022-08-11T14:33:29;37.40;48.50
58309;DHT22;44117;57.142;24.826;2022-08-11T14:36:18;37.00;47.70
58309;DHT22;44117;57.142;24.826;2022-08-11T14:38:46;34.80;49.70
58309;DHT22;44117;57.142;24.826;2022-08-11T14:41:14;35.40;50.10
58309;DHT22;44117;57.142;24.826;2022-08-11T14:43:59;35.90;49.80
58309;DHT22;44117;57.142;24.826;2022-08-11T14:46:46;35.60;50.00
58309;DHT22;44117;57.142;24.826;2022-08-11T14:49:52;37.50;47.50
58309;DHT22;44117;57.142;24.826;2022-08-11T14:52:38;38.40;48.50
58309;DHT22;44117;57.142;24.826;2022-08-11T14:55:05;37.70;47.00
58309;DHT22;44117;57.142;24.826;2022-08-11T14:57:52;35.20;48.40
58309;DHT22;44117;57.142;24.826;2022-08-11T15:00:22;33.20;49.20
58309;DHT22;44117;57.142;24.826;2022-08-11T15:02:50;33.10;50.80
58309;DHT22;44117;57.142;24.826;2022-08-11T15:05:38;34.40;50.60
58309;DHT22;44117;57.142;24.826;2022-08-11T15:08:07;34.90;48.70
58309;DHT22;44117;57.142;24.826;2022-08-11T15:10:34;34.80;49.30
58309;DHT22;44117;57.142;24.826;2022-08-11T15:13:03;35.70;49.10
58309;DHT22;44117;57.142;24.826;2022-08-11T15:15:31;33.90;49.70
58309;DHT22;44117;57.142;24.826;2022-08-11T15:18:18;34.20;49.80
58309;DHT22;44117;57.142;24.826;2022-08-11T15:20:46;34.00;50.60
58309;DHT22;44117;57.142;24.826;2022-08-11T15:23:32;34.50;50.00
58309;DHT22;44117;57.142;24.826;2022-08-11T15:26:18;34.80;49.50
58309;DHT22;44117;57.142;24.826;2022-08-11T15:29:07;33.00;50.90
58309;DHT22;44117;57.142;24.826;2022-08-11T15:31:53;33.40;50.00
58309;DHT22;44117;57.142;24.826;2022-08-11T15:34:40;32.90;51.00
58309;DHT22;44117;57.142;24.826;2022-08-11T15:37:29;32.80;52.30
58309;DHT22;44117;57.142;24.826;2022-08-11T15:43:01;33.90;51.40
58309;DHT22;44117;57.142;24.826;2022-08-11T15:45:55;32.30;51.20
58309;DHT22;44117;57.142;24.826;2022-08-11T15:48:33;32.30;53.40
58309;DHT22;44117;57.142;24.826;2022-08-11T15:51:05;32.30;52.70
58309;DHT22;44117;57.142;24.826;2022-08-11T15:53:42;32.10;52.80
58309;DHT22;44117;57.142;24.826;2022-08-11T15:56:24;31.60;53.30
58309;DHT22;44117;57.142;24.826;2022-08-11T15:58:52;32.20;52.90
58309;DHT22;44117;57.142;24.826;2022-08-11T16:01:59;33.00;52.70
58309;DHT22;44117;57.142;24.826;2022-08-11T16:04:46;33.60;51.40
58309;DHT22;44117;57.142;24.826;2022-08-11T16:07:15;33.80;50.90
58309;DHT22;44117;57.142;24.826;2022-08-11T16:12:24;33.20;50.80
58309;DHT22;44117;57.142;24.826;2022-08-11T16:14:55;33.80;51.50
58309;DHT22;44117;57.142;24.826;2022-08-11T16:17:47;33.40;51.90
58309;DHT22;44117;57.142;24.826;2022-08-11T16:20:18;34.30;53.50
58309;DHT22;44117;57.142;24.826;2022-08-11T16:22:46;34.90;53.20
58309;DHT22;44117;57.142;24.826;2022-08-11T16:25:27;35.50;51.60
58309;DHT22;44117;57.142;24.826;2022-08-11T16:28:15;36.20;52.00
58309;DHT22;44117;57.142;24.826;2022-08-11T16:30:43;36.50;50.10
58309;DHT22;44117;57.142;24.826;2022-08-11T16:33:12;37.00;50.10
58309;DHT22;44117;57.142;24.826;2022-08-11T16:35:59;37.10;50.70
58309;DHT22;44117;57.142;24.826;2022-08-11T16:38:47;37.50;47.40
58309;DHT22;44117;57.142;24.826;2022-08-11T16:41:16;37.20;47.60
58309;DHT22;44117;57.142;24.826;2022-08-11T16:44:04;37.80;47.60
58309;DHT22;44117;57.142;24.826;2022-08-11T16:47:07;37.50;49.00
58309;DHT22;44117;57.142;24.826;2022-08-11T16:49:41;37.20;48.80
58309;DHT22;44117;57.142;24.826;2022-08-11T16:52:18;37.10;48.10
58309;DHT22;44117;57.142;24.826;2022-08-11T16:54:45;36.40;48.10
58309;DHT22;44117;57.142;24.826;2022-08-11T16:57:21;35.40;48.10
58309;DHT22;44117;57.142;24.826;2022-08-11T17:00:07;34.20;48.90
58309;DHT22;44117;57.142;24.826;2022-08-11T17:02:40;33.60;52.10
58309;DHT22;44117;57.142;24.826;2022-08-11T17:05:27;32.90;53.30
58309;DHT22;44117;57.142;24.826;2022-08-11T17:08:26;32.00;54.30
58309;DHT22;44117;57.142;24.826;2022-08-11T17:11:23;31.20;52.90
58309;DHT22;44117;57.142;24.826;2022-08-11T17:14:15;30.30;55.20
58309;DHT22;44117;57.142;24.826;2022-08-11T17:17:00;29.90;58.10
58309;DHT22;44117;57.142;24.826;2022-08-11T17:19:31;29.30;56.70
58309;DHT22;44117;57.142;24.826;2022-08-11T17:22:19;28.80;59.80
58309;DHT22;44117;57.142;24.826;2022-08-11T17:25:05;28.20;60.70
58309;DHT22;44117;57.142;24.826;2022-08-11T17:27:34;27.40;62.60
58309;DHT22;44117;57.142;24.826;2022-08-11T17:30:03;27.20;63.40
58309;DHT22;44117;57.142;24.826;2022-08-11T17:32:38;26.90;63.70
58309;DHT22;44117;57.142;24.826;2022-08-11T17:35:44;26.50;64.20
58309;DHT22;44117;57.142;24.826;2022-08-11T17:38:16;26.30;63.60
58309;DHT22;44117;57.142;24.826;2022-08-11T17:40:48;26.10;65.00
58309;DHT22;44117;57.142;24.826;2022-08-11T17:43:44;25.90;64.90
58309;DHT22;44117;57.142;24.826;2022-08-11T17:46:30;25.60;65.90
58309;DHT22;44117;57.142;24.826;2022-08-11T17:49:16;25.40;67.50
58309;DHT22;44117;57.142;24.826;2022-08-11T17:51:47;25.30;68.80
58309;DHT22;44117;57.142;24.826;2022-08-11T17:54:34;25.00;69.80
58309;DHT22;44117;57.142;24.826;2022-08-11T17:57:21;24.70;70.60
58309;DHT22;44117;57.142;24.826;2022-08-11T18:00:13;24.60;71.10
58309;DHT22;44117;57.142;24.826;2022-08-11T18:02:43;24.30;71.20
58309;DHT22;44117;57.142;24.826;2022-08-11T18:05:30;24.30;71.60
58309;DHT22;44117;57.142;24.826;2022-08-11T18:08:00;24.20;72.60
58309;DHT22;44117;57.142;24.826;2022-08-11T18:10:47;24.10;73.40
58309;DHT22;44117;57.142;24.826;2022-08-11T18:13:35;23.80;74.70
58309;DHT22;44117;57.142;24.826;2022-08-11T18:16:21;23.60;75.30
58309;DHT22;44117;57.142;24.826;2022-08-11T18:19:07;23.40;76.40
58309;DHT22;44117;57.142;24.826;2022-08-11T18:21:57;23.00;76.80
58309;DHT22;44117;57.142;24.826;2022-08-11T18:24:47;22.80;78.10
58309;DHT22;44117;57.142;24.826;2022-08-11T18:27:35;22.50;78.80
58309;DHT22;44117;57.142;24.826;2022-08-11T18:30:22;22.40;78.40
58309;DHT22;44117;57.142;24.826;2022-08-11T18:33:09;22.40;78.20
58309;DHT22;44117;57.142;24.826;2022-08-11T18:36:23;22.50;77.30
58309;DHT22;44117;57.142;24.826;2022-08-11T18:39:12;22.30;78.10
58309;DHT22;44117;57.142;24.826;2022-08-11T18:42:00;22.00;77.60
58309;DHT22;44117;57.142;24.826;2022-08-11T18:45:00;21.80;79.30
58309;DHT22;44117;57.142;24.826;2022-08-11T18:47:47;21.70;79.90
58309;DHT22;44117;57.142;24.826;2022-08-11T18:50:36;21.70;80.20
58309;DHT22;44117;57.142;24.826;2022-08-11T18:53:43;21.60;81.30
58309;DHT22;44117;57.142;24.826;2022-08-11T18:56:31;21.50;81.40
58309;DHT22;44117;57.142;24.826;2022-08-11T18:59:17;21.30;81.90
58309;DHT22;44117;57.142;24.826;2022-08-11T19:02:04;21.30;81.90
58309;DHT22;44117;57.142;24.826;2022-08-11T19:04:50;21.10;82.90
58309;DHT22;44117;57.142;24.826;2022-08-11T19:07:36;20.90;84.00
58309;DHT22;44117;57.142;24.826;2022-08-11T19:10:23;20.80;84.70
58309;DHT22;44117;57.142;24.826;2022-08-11T19:13:09;20.60;85.10
58309;DHT22;44117;57.142;24.826;2022-08-11T19:15:55;20.60;86.10
58309;DHT22;44117;57.142;24.826;2022-08-11T19:18:41;20.40;86.10
58309;DHT22;44117;57.142;24.826;2022-08-11T19:21:29;20.50;86.10
58309;DHT22;44117;57.142;24.826;2022-08-11T19:24:15;20.20;86.60
58309;DHT22;44117;57.142;24.826;2022-08-11T19:27:01;20.20;86.40
58309;DHT22;44117;57.142;24.826;2022-08-11T19:29:47;20.10;86.80
58309;DHT22;44117;57.142;24.826;2022-08-11T19:32:40;20.10;87.10
58309;DHT22;44117;57.142;24.826;2022-08-11T19:35:26;20.10;87.90
58309;DHT22;44117;57.142;24.826;2022-08-11T19:38:12;20.00;88.30
58309;DHT22;44117;57.142;24.826;2022-08-11T19:40:58;20.00;88.50
58309;DHT22;44117;57.142;24.826;2022-08-11T19:44:04;20.00;88.40
58309;DHT22;44117;57.142;24.826;2022-08-11T19:46:50;19.90;88.80
58309;DHT22;44117;57.142;24.826;2022-08-11T19:49:36;19.70;88.70
58309;DHT22;44117;57.142;24.826;2022-08-11T19:52:23;19.70;89.30
58309;DHT22;44117;57.142;24.826;2022-08-11T19:55:10;19.60;89.70
58309;DHT22;44117;57.142;24.826;2022-08-11T19:57:56;19.60;89.50
58309;DHT22;44117;57.142;24.826;2022-08-11T20:00:41;19.60;88.70
58309;DHT22;44117;57.142;24.826;2022-08-11T20:03:27;19.50;88.70
58309;DHT22;44117;57.142;24.826;2022-08-11T20:06:13;19.50;88.70
58309;DHT22;44117;57.142;24.826;2022-08-11T20:09:00;19.50;89.30
58309;DHT22;44117;57.142;24.826;2022-08-11T20:11:48;19.40;89.50